Time;durP1;ratioP1;P1;durP2;ratioP2;P2;SDS_P1;SDS_P2;PMS_P1;PMS_P2;Temp;Humidity;BMP_temperature;BMP_pressure;BME280_temperature;BME280_humidity;BME280_pressure;Samples;Min_cycle;Max_cycle;Signal;HPM_P1;HPM_P2
2023/09/18 00:02:17;;;;;;;11.98;10.70;;;;;;;17.84;100.00;99567.00;4974674;28;20057;-87
2023/09/18 00:04:42;;;;;;;11.52;10.43;;;;;;;17.85;100.00;99573.94;4974606;28;20030;-88
2023/09/18 00:07:07;;;;;;;10.90;9.93;;;;;;;17.92;100.00;99579.59;4974349;28;20117;-87
2023/09/18 00:09:32;;;;;;;9.85;9.00;;;;;;;17.90;100.00;99584.13;4991216;28;20038;-88
2023/09/18 00:11:58;;;;;;;10.43;9.52;;;;;;;17.82;100.00;99565.44;4991763;28;20031;-87
2023/09/18 00:14:23;;;;;;;11.20;10.10;;;;;;;17.98;100.00;99589.63;5010337;28;20449;-87
2023/09/18 00:16:49;;;;;;;10.88;9.77;;;;;;;17.99;100.00;99585.19;4993615;28;20481;-87
2023/09/18 00:19:14;;;;;;;10.05;9.15;;;;;;;17.81;100.00;99555.88;5012904;28;20397;-87
2023/09/18 00:21:40;;;;;;;10.52;9.52;;;;;;;17.93;100.00;99576.81;5051126;28;20538;-87
2023/09/18 00:24:06;;;;;;;11.23;9.90;;;;;;;17.94;100.00;99585.56;5050677;28;20033;-88
2023/09/18 00:26:31;;;;;;;10.85;9.85;;;;;;;17.71;100.00;99550.44;5051050;28;20082;-87
2023/09/18 00:28:56;;;;;;;11.68;10.50;;;;;;;17.74;100.00;99552.00;5050775;28;20033;-88
2023/09/18 00:31:22;;;;;;;11.15;10.15;;;;;;;17.83;100.00;99570.59;5052112;28;20037;-87
2023/09/18 00:33:48;;;;;;;10.48;9.38;;;;;;;17.79;100.00;99565.69;5029620;28;20033;-88
2023/09/18 00:36:13;;;;;;;10.30;9.40;;;;;;;17.74;100.00;99558.16;5012968;28;20115;-88
2023/09/18 00:38:38;;;;;;;10.73;9.73;;;;;;;17.82;100.00;99568.06;5013099;28;20489;-87
2023/09/18 00:41:05;;;;;;;10.73;9.73;;;;;;;17.72;100.00;99546.84;5029312;28;20034;-88
2023/09/18 00:43:31;;;;;;;11.23;10.23;;;;;;;17.84;100.00;99571.44;5013098;28;20393;-87
2023/09/18 00:45:57;;;;;;;10.40;9.40;;;;;;;17.77;100.00;99554.41;5029183;28;20041;-88
2023/09/18 00:48:22;;;;;;;11.30;10.20;;;;;;;17.76;100.00;99548.31;5029631;28;20042;-87
2023/09/18 00:50:48;;;;;;;10.95;9.85;;;;;;;17.79;100.00;99563.06;5013157;28;20037;-88
2023/09/18 00:53:21;;;;;;;10.85;9.75;;;;;;;17.77;100.00;99562.31;5036406;28;20044;-88
2023/09/18 00:55:46;;;;;;;11.82;10.63;;;;;;;17.80;100.00;99565.56;5052700;28;20036;-87
2023/09/18 00:58:13;;;;;;;11.75;10.60;;;;;;;17.72;100.00;99552.13;5052340;28;20501;-88
2023/09/18 01:00:40;;;;;;;10.88;9.80;;;;;;;17.64;100.00;99549.25;5052578;28;20056;-87
2023/09/18 01:03:06;;;;;;;10.45;9.55;;;;;;;17.75;100.00;99561.63;5052403;28;20048;-87
2023/09/18 01:05:35;;;;;;;10.48;9.43;;;;;;;17.65;100.00;99549.09;5087589;28;20047;-87
2023/09/18 01:08:01;;;;;;;10.48;9.38;;;;;;;17.41;100.00;99519.44;5092001;28;20440;-87
2023/09/18 01:10:34;;;;;;;11.63;10.52;;;;;;;17.53;100.00;99533.41;5092053;28;20075;-87
2023/09/18 01:13:23;;;;;;;12.10;10.90;;;;;;;17.59;100.00;99541.69;5090028;28;20131;-87
2023/09/18 01:15:57;;;;;;;11.02;9.88;;;;;;;17.55;100.00;99540.25;5090702;28;20024;-87
2023/09/18 01:18:23;;;;;;;10.98;9.98;;;;;;;17.55;100.00;99544.69;5090578;28;20077;-88
2023/09/18 01:20:48;;;;;;;11.00;9.98;;;;;;;17.52;100.00;99535.22;5090479;28;20024;-87
2023/09/18 01:23:13;;;;;;;11.40;10.30;;;;;;;17.57;100.00;99545.41;5090351;28;20114;-88
2023/09/18 01:25:39;;;;;;;10.68;9.38;;;;;;;17.46;100.00;99523.38;5090383;28;20063;-87
2023/09/18 01:28:04;;;;;;;11.80;10.75;;;;;;;17.53;100.00;99536.06;5091874;28;20035;-87
2023/09/18 01:30:30;;;;;;;11.30;10.20;;;;;;;17.45;100.00;99519.06;5090600;28;20031;-87
2023/09/18 01:32:58;;;;;;;13.45;10.70;;;;;;;17.49;100.00;99524.06;5090389;28;20115;-87
2023/09/18 01:35:29;;;;;;;11.52;10.43;;;;;;;17.46;100.00;99520.75;5092161;28;20020;-87
2023/09/18 01:37:56;;;;;;;11.68;10.43;;;;;;;17.44;100.00;99527.94;5094162;28;20036;-87
2023/09/18 01:40:24;;;;;;;12.68;11.15;;;;;;;17.38;100.00;99519.66;5094173;28;20028;-87
2023/09/18 01:42:49;;;;;;;11.32;10.30;;;;;;;17.36;100.00;99514.53;5094471;28;20020;-87
2023/09/18 01:45:14;;;;;;;11.20;10.20;;;;;;;17.41;100.00;99517.63;5094074;28;20088;-87
2023/09/18 01:47:40;;;;;;;14.20;11.85;;;;;;;17.44;100.00;99511.28;5094461;28;20077;-87
2023/09/18 01:50:05;;;;;;;11.85;10.63;;;;;;;17.39;100.00;99513.44;5072261;28;20495;-87
2023/09/18 01:52:31;;;;;;;13.00;11.63;;;;;;;17.36;100.00;99508.38;5055808;28;20431;-87
2023/09/18 01:54:56;;;;;;;12.02;10.85;;;;;;;17.40;100.00;99515.09;5055515;28;20037;-87
2023/09/18 01:57:22;;;;;;;12.63;11.43;;;;;;;17.18;100.00;99486.97;5073023;28;20536;-87
2023/09/18 01:59:47;;;;;;;13.05;11.73;;;;;;;17.29;100.00;99505.41;5055687;28;20571;-87
2023/09/18 02:02:13;;;;;;;12.25;11.00;;;;;;;17.00;100.00;99455.00;5055499;28;20198;-87
2023/09/18 02:04:38;;;;;;;12.00;10.88;;;;;;;17.29;100.00;99501.94;5055685;28;20177;-87
2023/09/18 02:07:05;;;;;;;12.48;11.27;;;;;;;17.23;100.00;99492.69;5055655;28;20101;-87
2023/09/18 02:09:30;;;;;;;13.23;11.82;;;;;;;17.13;100.00;99478.59;5055680;28;20052;-87
2023/09/18 02:11:56;;;;;;;11.93;10.85;;;;;;;17.21;100.00;99492.00;5055113;28;20035;-87
2023/09/18 02:14:22;;;;;;;11.52;10.43;;;;;;;17.18;100.00;99486.97;5055604;28;20278;-87
2023/09/18 02:16:49;;;;;;;11.88;10.77;;;;;;;16.92;100.00;99439.78;5055510;28;20040;-87
2023/09/18 02:19:15;;;;;;;12.55;11.25;;;;;;;16.95;100.00;99428.22;5055223;28;20025;-87
2023/09/18 02:21:41;;;;;;;12.93;11.70;;;;;;;17.11;100.00;99462.91;5082883;28;20044;-88
2023/09/18 02:24:07;;;;;;;12.35;11.13;;;;;;;17.26;100.00;99484.56;5094550;28;20081;-87
2023/09/18 02:26:32;;;;;;;12.32;11.13;;;;;;;17.22;100.00;99485.75;5094893;28;20036;-87
2023/09/18 02:29:05;;;;;;;11.98;10.88;;;;;;;17.24;100.00;99488.31;5093424;28;20028;-87
2023/09/18 02:31:30;;;;;;;12.27;11.00;;;;;;;17.15;100.00;99477.53;5093393;28;20056;-87
2023/09/18 02:33:56;;;;;;;14.52;11.88;;;;;;;17.13;100.00;99486.47;5093175;28;20511;-87
2023/09/18 02:36:21;;;;;;;11.88;10.77;;;;;;;17.21;100.00;99498.09;5093302;28;20028;-87
2023/09/18 02:38:47;;;;;;;12.65;11.52;;;;;;;17.10;100.00;99476.19;5093132;28;20020;-88
2023/09/18 02:41:12;;;;;;;13.05;11.75;;;;;;;17.19;100.00;99480.72;5093102;28;20036;-87
2023/09/18 02:43:40;;;;;;;12.60;11.40;;;;;;;17.20;100.00;99475.38;5093236;28;20024;-87
2023/09/18 02:46:06;;;;;;;12.02;10.93;;;;;;;17.23;100.00;99483.97;5094719;28;20121;-88
2023/09/18 02:48:32;;;;;;;12.40;11.20;;;;;;;17.20;100.00;99477.16;5093160;28;20039;-88
2023/09/18 02:51:01;;;;;;;12.57;11.40;;;;;;;17.04;100.00;99460.88;5094024;28;20032;-87
2023/09/18 02:53:27;;;;;;;11.77;10.68;;;;;;;17.10;100.00;99470.91;5093272;28;20028;-87
2023/09/18 02:55:55;;;;;;;12.07;10.90;;;;;;;17.03;100.00;99456.56;5094415;28;20028;-88
2023/09/18 02:58:21;;;;;;;12.57;11.27;;;;;;;17.14;100.00;99478.44;5092776;28;20028;-88
2023/09/18 03:00:48;;;;;;;12.60;11.30;;;;;;;17.11;100.00;99478.72;5092950;28;20031;-87
2023/09/18 03:03:15;;;;;;;14.07;12.63;;;;;;;17.09;100.00;99482.41;5092661;28;20027;-87
2023/09/18 03:05:42;;;;;;;12.02;10.93;;;;;;;16.97;100.00;99449.97;5092627;28;20028;-87
2023/09/18 03:08:08;;;;;;;12.10;11.00;;;;;;;17.08;100.00;99472.84;5092686;28;20165;-88
2023/09/18 03:10:39;;;;;;;13.07;11.70;;;;;;;16.86;100.00;99445.53;5092715;28;20508;-87
2023/09/18 03:13:06;;;;;;;12.38;11.15;;;;;;;16.86;100.00;99445.53;5092284;28;20055;-87
2023/09/18 03:15:32;;;;;;;13.48;12.18;;;;;;;16.98;100.00;99467.44;5092636;28;20040;-87
2023/09/18 03:17:58;;;;;;;12.32;11.13;;;;;;;17.05;100.00;99479.16;5092661;28;20039;-88
2023/09/18 03:20:26;;;;;;;13.85;12.18;;;;;;;17.11;100.00;99478.72;5092356;28;20446;-87
2023/09/18 03:22:52;;;;;;;12.93;11.60;;;;;;;17.04;100.00;99474.03;5092599;28;20024;-88
2023/09/18 03:25:17;;;;;;;13.20;11.38;;;;;;;17.05;100.00;99465.16;5092198;28;20020;-87
2023/09/18 03:27:43;;;;;;;13.60;12.20;;;;;;;16.95;100.00;99457.16;5092417;28;20139;-87
2023/09/18 03:30:09;;;;;;;13.18;11.93;;;;;;;16.88;100.00;99442.78;5092025;28;20475;-87
2023/09/18 03:32:35;;;;;;;12.75;11.45;;;;;;;17.02;100.00;99468.84;5092192;28;20063;-87
2023/09/18 03:35:01;;;;;;;11.82;10.73;;;;;;;16.94;100.00;99451.06;5091972;28;20032;-87
2023/09/18 03:37:27;;;;;;;15.80;11.85;;;;;;;16.95;100.00;99444.81;5092413;28;20400;-87
2023/09/18 03:39:52;;;;;;;13.18;11.98;;;;;;;16.83;100.00;99416.00;5092232;28;20501;-87
2023/09/18 03:42:17;;;;;;;13.40;12.20;;;;;;;16.96;100.00;99435.97;5092042;28;20111;-87
2023/09/18 03:44:43;;;;;;;13.15;11.90;;;;;;;16.92;100.00;99428.44;5092074;28;20421;-87
2023/09/18 03:47:08;;;;;;;13.48;12.13;;;;;;;16.92;100.00;99429.25;5091710;28;20360;-86
2023/09/18 03:49:33;;;;;;;13.40;11.05;;;;;;;16.94;100.00;99442.31;5091778;28;20544;-88
2023/09/18 03:51:59;;;;;;;13.85;12.50;;;;;;;16.90;100.00;99433.81;5091938;28;20091;-87
2023/09/18 03:54:24;;;;;;;13.48;11.93;;;;;;;16.85;100.00;99427.22;5091622;28;20047;-87
2023/09/18 03:56:49;;;;;;;14.25;12.85;;;;;;;16.74;100.00;99403.53;5091905;28;20024;-87
2023/09/18 03:59:15;;;;;;;14.00;12.50;;;;;;;16.83;100.00;99426.50;5091283;28;20035;-87
2023/09/18 04:01:40;;;;;;;13.75;12.52;;;;;;;16.71;100.00;99415.09;5092309;28;20069;-87
2023/09/18 04:04:06;;;;;;;15.05;13.55;;;;;;;16.66;100.00;99412.81;5091688;28;20055;-87
2023/09/18 04:06:42;;;;;;;13.73;12.40;;;;;;;16.72;100.00;99422.00;5091854;28;20031;-87
2023/09/18 04:09:08;;;;;;;14.23;12.93;;;;;;;16.67;100.00;99422.38;5091777;28;20028;-86
2023/09/18 04:11:33;;;;;;;14.20;12.80;;;;;;;16.70;100.00;99432.66;5092028;28;20019;-87
2023/09/18 04:14:00;;;;;;;15.10;13.63;;;;;;;16.66;100.00;99428.59;5092084;28;20052;-87
2023/09/18 04:16:27;;;;;;;14.85;13.35;;;;;;;16.60;100.00;99430.81;5091952;28;20035;-87
2023/09/18 04:18:53;;;;;;;15.80;13.15;;;;;;;16.57;100.00;99421.41;5093502;28;20020;-87
2023/09/18 04:21:19;;;;;;;15.02;13.52;;;;;;;16.19;100.00;99364.63;5093028;28;20028;-87
2023/09/18 04:23:44;;;;;;;14.13;12.80;;;;;;;16.45;100.00;99388.97;5091570;28;20024;-87
2023/09/18 04:26:10;;;;;;;14.30;12.95;;;;;;;16.67;100.00;99424.16;5091170;28;20027;-87
2023/09/18 04:28:36;;;;;;;14.65;13.10;;;;;;;16.64;100.00;99417.38;5091267;28;20153;-87
2023/09/18 04:31:01;;;;;;;15.50;13.93;;;;;;;16.50;100.00;99401.75;5092958;28;20566;-87
2023/09/18 04:33:28;;;;;;;15.85;14.35;;;;;;;16.52;100.00;99410.38;5091057;28;20078;-87
2023/09/18 04:35:54;;;;;;;15.38;13.82;;;;;;;16.50;100.00;99411.44;5091483;28;20052;-87
2023/09/18 04:38:19;;;;;;;15.48;13.98;;;;;;;16.37;100.00;99380.81;5091119;28;20063;-87
2023/09/18 04:40:45;;;;;;;15.93;14.30;;;;;;;16.53;100.00;99400.72;5092566;28;20024;-87
2023/09/18 04:43:11;;;;;;;15.63;13.85;;;;;;;16.50;100.00;99396.50;5092201;28;20078;-87
2023/09/18 04:45:36;;;;;;;15.43;13.82;;;;;;;16.45;100.00;99380.25;5092035;28;20028;-87
2023/09/18 04:48:02;;;;;;;15.43;13.93;;;;;;;16.42;100.00;99376.03;5091119;28;20115;-88
2023/09/18 04:50:28;;;;;;;15.25;13.75;;;;;;;16.57;100.00;99389.00;5091968;28;20479;-89
2023/09/18 04:52:54;;;;;;;16.67;14.50;;;;;;;16.51;100.00;99386.81;5090999;28;20085;-88
2023/09/18 04:55:21;;;;;;;14.95;13.43;;;;;;;16.56;100.00;99385.53;5090731;28;20023;-89
2023/09/18 04:57:46;;;;;;;15.52;14.02;;;;;;;16.63;100.00;99392.00;5090960;28;20036;-89
2023/09/18 05:00:13;;;;;;;16.13;14.25;;;;;;;16.63;100.00;99392.00;5090691;28;20039;-88
2023/09/18 05:02:40;;;;;;;15.80;14.20;;;;;;;16.44;100.00;99352.28;5090951;28;20032;-88
2023/09/18 05:05:08;;;;;;;15.07;13.65;;;;;;;16.62;100.00;99379.81;5090927;28;20101;-89
2023/09/18 05:07:34;;;;;;;15.02;13.43;;;;;;;16.79;100.00;99391.72;5090840;28;20121;-89
2023/09/18 05:09:59;;;;;;;16.90;15.20;;;;;;;16.51;100.00;99348.22;5091724;28;20052;-89
2023/09/18 05:12:24;;;;;;;16.65;14.95;;;;;;;16.77;100.00;99388.38;5094567;28;20040;-88
2023/09/18 05:14:51;;;;;;;16.02;14.43;;;;;;;16.75;100.00;99373.66;5094934;28;20023;-89
2023/09/18 05:17:16;;;;;;;15.80;14.30;;;;;;;16.98;100.00;99396.41;5094900;28;20119;-88
2023/09/18 05:19:42;;;;;;;16.35;14.75;;;;;;;17.03;100.00;99393.41;5094973;28;20122;-89
2023/09/18 05:22:12;;;;;;;14.55;13.27;;;;;;;17.04;100.00;99393.28;5094573;28;20032;-89
2023/09/18 05:24:38;;;;;;;14.23;12.82;;;;;;;17.19;100.00;99393.88;5096021;28;20031;-88
2023/09/18 05:27:05;;;;;;;17.00;14.50;;;;;;;17.26;100.00;99389.81;5094742;28;20433;-89
2023/09/18 05:29:31;;;;;;;14.85;13.45;;;;;;;17.35;100.00;99394.34;5094401;28;20058;-88
2023/09/18 05:31:57;;;;;;;15.38;13.88;;;;;;;17.32;100.00;99365.66;5094681;28;20436;-89
2023/09/18 05:34:22;;;;;;;14.93;13.38;;;;;;;17.64;100.00;99384.16;5094489;28;20028;-89
2023/09/18 05:36:48;;;;;;;15.07;13.50;;;;;;;17.85;100.00;99380.78;5094589;28;20031;-89
2023/09/18 05:39:14;;;;;;;16.70;14.52;;;;;;;17.90;100.00;99384.72;5094335;28;20035;-88
2023/09/18 05:41:39;;;;;;;15.65;14.15;;;;;;;17.79;100.00;99347.88;5094821;28;20387;-88
2023/09/18 05:44:07;;;;;;;15.05;13.55;;;;;;;18.04;100.00;99378.34;5094338;28;20020;-89
2023/09/18 05:46:35;;;;;;;14.55;13.15;;;;;;;18.17;100.00;99375.53;5094305;28;20064;-89
2023/09/18 05:49:00;;;;;;;13.65;12.30;;;;;;;18.47;100.00;99380.06;5094464;28;20111;-89
2023/09/18 05:51:26;;;;;;;13.65;12.40;;;;;;;18.70;100.00;99378.13;5094267;28;20035;-90
2023/09/18 05:53:51;;;;;;;13.05;11.75;;;;;;;18.83;100.00;99375.28;5094280;28;20124;-89
2023/09/18 05:56:17;;;;;;;14.00;12.70;;;;;;;18.66;100.00;99350.31;5093842;28;20032;-89
2023/09/18 05:58:43;;;;;;;14.73;13.20;;;;;;;18.78;100.00;99374.84;5094047;28;20036;-90
2023/09/18 06:01:09;;;;;;;13.65;11.43;;;;;;;19.01;100.00;99367.63;5078631;28;20033;-89
2023/09/18 06:03:35;;;;;;;12.82;11.52;;;;;;;19.44;100.00;99367.38;5053761;28;20399;-88
2023/09/18 06:06:05;;;;;;;13.00;11.70;;;;;;;19.53;100.00;99363.06;5053727;28;20029;-88
2023/09/18 06:08:31;;;;;;;13.48;12.07;;;;;;;19.55;100.00;99359.34;5053407;28;20025;-89
2023/09/18 06:10:57;;;;;;;16.55;12.23;;;;;;;19.59;100.00;99360.75;5053504;28;20029;-88
2023/09/18 06:13:27;;;;;;;13.90;11.65;;;;;;;19.66;100.00;99350.47;5053338;28;20063;-89
2023/09/18 06:15:55;;;;;;;11.93;10.68;;;;;;;19.72;100.00;99326.16;5064814;28;20483;-89
2023/09/18 06:18:21;;;;;;;12.93;11.68;;;;;;;19.85;100.00;99345.22;5073302;28;20043;-89
2023/09/18 06:20:47;;;;;;;13.52;11.85;;;;;;;19.98;100.00;99350.25;5072842;28;20028;-89
2023/09/18 06:23:13;;;;;;;12.38;11.10;;;;;;;20.24;100.00;99349.69;5073134;28;20476;-89
2023/09/18 06:25:39;;;;;;;13.32;10.07;;;;;;;20.43;100.00;99345.19;5073399;28;20025;-89
2023/09/18 06:28:05;;;;;;;12.50;9.70;;;;;;;20.72;100.00;99354.06;5073407;28;20468;-89
2023/09/18 06:30:33;;;;;;;12.02;10.93;;;;;;;20.89;100.00;99348.84;5068510;28;20055;-89
2023/09/18 06:32:58;;;;;;;11.30;9.50;;;;;;;21.03;100.00;99333.50;5057877;28;20036;-88
2023/09/18 06:35:23;;;;;;;10.77;9.77;;;;;;;21.61;100.00;99355.22;5055814;28;20021;-88
2023/09/18 06:37:49;;;;;;;11.38;10.38;;;;;;;22.00;100.00;99354.16;5066874;28;20028;-88
2023/09/18 06:40:14;;;;;;;11.40;10.00;;;;;;;22.09;98.78;99343.44;5072539;28;20054;-88
2023/09/18 06:42:39;;;;;;;11.50;10.40;;;;;;;22.08;99.04;99343.59;5073120;28;20549;-88
2023/09/18 06:45:06;;;;;;;10.18;9.13;;;;;;;22.14;99.04;99324.47;5073117;28;20050;-88
2023/09/18 06:47:33;;;;;;;9.45;8.55;;;;;;;22.48;99.09;99337.81;5072868;28;20033;-88
2023/09/18 06:49:59;;;;;;;11.38;10.00;;;;;;;22.62;96.79;99344.38;5072946;28;20067;-88
2023/09/18 06:52:26;;;;;;;9.88;8.98;;;;;;;22.75;96.50;99334.16;5072632;28;20032;-89
2023/09/18 06:54:52;;;;;;;10.75;9.75;;;;;;;22.95;94.81;99331.31;5072638;28;20044;-89
2023/09/18 06:57:17;;;;;;;11.07;9.90;;;;;;;23.18;94.77;99331.59;5072729;28;20464;-89
2023/09/18 06:59:43;;;;;;;10.43;9.35;;;;;;;23.18;93.84;99334.25;5072790;28;20035;-89
2023/09/18 07:02:08;;;;;;;11.00;9.90;;;;;;;23.06;94.25;99339.03;5072676;28;20024;-88
2023/09/18 07:04:33;;;;;;;11.20;9.95;;;;;;;23.18;94.57;99320.97;5072433;28;20035;-89
2023/09/18 07:06:59;;;;;;;9.32;8.32;;;;;;;23.37;94.03;99345.44;5072794;28;20082;-89
2023/09/18 07:09:25;;;;;;;11.55;9.60;;;;;;;23.48;93.05;99338.19;5053151;28;20033;-89
2023/09/18 07:11:51;;;;;;;10.40;9.40;;;;;;;23.57;92.40;99334.56;5054538;28;20048;-89
2023/09/18 07:14:16;;;;;;;10.07;8.65;;;;;;;23.76;91.71;99338.75;5053936;28;20041;-88
2023/09/18 07:16:42;;;;;;;9.95;9.05;;;;;;;23.95;90.68;99334.97;5054456;28;20496;-89
2023/09/18 07:19:11;;;;;;;9.50;8.60;;;;;;;24.38;89.87;99344.50;5054423;28;20036;-89
2023/09/18 07:21:37;;;;;;;9.23;8.35;;;;;;;24.90;87.53;99336.06;5053998;28;20025;-89
2023/09/18 07:24:03;;;;;;;8.88;8.07;;;;;;;25.69;85.49;99314.75;5049880;28;20484;-89
2023/09/18 07:26:28;;;;;;;8.98;8.18;;;;;;;26.28;81.99;99305.13;5031013;28;20032;-89
2023/09/18 07:28:54;;;;;;;10.05;9.20;;;;;;;26.83;81.08;99325.28;5033496;28;20044;-88
2023/09/18 07:31:19;;;;;;;9.57;8.63;;;;;;;27.14;78.82;99335.00;5033087;28;20488;-88
2023/09/18 07:33:45;;;;;;;9.68;8.60;;;;;;;27.35;79.31;99326.22;5040134;28;20041;-89
2023/09/18 07:36:10;;;;;;;8.70;7.90;;;;;;;27.47;78.11;99292.59;5033279;28;20033;-88
2023/09/18 07:38:37;;;;;;;9.65;8.75;;;;;;;27.90;76.92;99322.13;5032316;28;20217;-89
2023/09/18 07:41:02;;;;;;;9.68;8.77;;;;;;;28.03;76.48;99316.88;5053366;28;20047;-88
2023/09/18 07:43:28;;;;;;;12.88;9.50;;;;;;;27.32;75.86;99284.63;5065232;28;20380;-89
2023/09/18 07:45:54;;;;;;;11.02;8.98;;;;;;;26.89;77.59;99307.72;5071635;28;20032;-86
2023/09/18 07:48:20;;;;;;;9.23;8.35;;;;;;;26.36;80.13;99309.56;5071565;28;20430;-88
2023/09/18 07:50:46;;;;;;;10.10;9.15;;;;;;;25.62;81.50;99272.78;5071532;28;20613;-88
2023/09/18 07:53:11;;;;;;;10.38;9.48;;;;;;;25.55;82.99;99311.81;5071349;28;20116;-88
2023/09/18 07:55:37;;;;;;;12.18;9.82;;;;;;;25.17;84.70;99294.88;5071459;28;20032;-88
2023/09/18 07:58:04;;;;;;;11.77;10.60;;;;;;;24.92;85.47;99304.78;5071959;28;20119;-89
2023/09/18 08:00:30;;;;;;;10.48;9.38;;;;;;;24.79;87.20;99301.81;5071250;28;20052;-89
2023/09/18 08:03:00;;;;;;;11.07;9.98;;;;;;;24.58;87.86;99300.53;5070201;28;20132;-88
2023/09/18 08:05:28;;;;;;;11.57;10.25;;;;;;;24.23;89.27;99306.19;5069947;28;20392;-89
2023/09/18 08:07:56;;;;;;;10.55;9.45;;;;;;;24.05;90.37;99288.56;5053394;28;20044;-87
2023/09/18 08:10:23;;;;;;;11.63;10.52;;;;;;;23.83;90.74;99279.44;5053166;28;20028;-86
2023/09/18 08:12:50;;;;;;;13.82;10.95;;;;;;;23.88;91.30;99295.72;5052618;28;20091;-83
2023/09/18 08:15:16;;;;;;;13.68;11.10;;;;;;;23.77;92.25;99292.59;5052685;28;20477;-82
2023/09/18 08:17:42;;;;;;;12.40;9.77;;;;;;;23.82;92.52;99277.78;5062639;28;20060;-82
2023/09/18 08:20:13;;;;;;;12.05;10.88;;;;;;;23.84;91.27;99256.34;5048423;28;20029;-83
2023/09/18 08:22:40;;;;;;;10.65;9.57;;;;;;;24.06;92.19;99273.44;5032814;28;20561;-84
2023/09/18 08:25:10;;;;;;;11.23;10.10;;;;;;;24.11;91.96;99250.69;5049346;28;20102;-84
2023/09/18 08:27:40;;;;;;;10.90;9.75;;;;;;;24.35;91.70;99275.56;5049145;28;20059;-84
2023/09/18 08:30:06;;;;;;;10.95;9.95;;;;;;;24.28;91.26;99267.47;5049106;28;20052;-83
2023/09/18 08:32:33;;;;;;;11.90;10.43;;;;;;;24.30;91.17;99269.94;5049019;28;20569;-83
2023/09/18 08:35:01;;;;;;;12.13;10.93;;;;;;;24.40;91.51;99270.63;5051195;28;20399;-83
2023/09/18 08:37:26;;;;;;;10.65;9.60;;;;;;;24.31;91.79;99245.84;5051740;28;20116;-84
2023/09/18 08:39:52;;;;;;;11.45;10.35;;;;;;;24.38;91.18;99256.66;5051913;28;20120;-84
2023/09/18 08:42:20;;;;;;;11.05;10.05;;;;;;;24.31;91.08;99234.34;5065886;28;20070;-83
2023/09/18 08:44:51;;;;;;;10.77;9.77;;;;;;;24.47;91.24;99238.81;5071187;28;20027;-84
2023/09/18 08:47:18;;;;;;;;;;;;;;;24.64;90.66;99267.06;5071654;28;20036;-84
2023/09/18 08:49:44;;;;;;;11.27;10.27;;;;;;;24.55;90.79;99250.28;5059393;28;19920;-82
2023/09/18 08:52:11;;;;;;;11.88;10.70;;;;;;;24.64;91.60;99248.41;5060716;28;20031;-84
2023/09/18 08:54:36;;;;;;;10.50;9.50;;;;;;;24.69;90.94;99246.06;5060936;28;20027;-84
2023/09/18 08:57:02;;;;;;;12.32;10.98;;;;;;;24.65;90.44;99244.78;5059169;28;20021;-84
2023/09/18 08:59:30;;;;;;;12.50;11.30;;;;;;;24.47;89.76;99215.69;5057519;28;20028;-83
2023/09/18 09:01:56;;;;;;;14.68;12.98;;;;;;;24.39;89.59;99213.06;5058983;28;20024;-83
2023/09/18 09:04:21;;;;;;;11.90;10.65;;;;;;;24.46;90.51;99237.16;5057956;28;20029;-83
2023/09/18 09:06:47;;;;;;;12.38;11.18;;;;;;;24.46;90.95;99240.66;5060823;28;20032;-83
2023/09/18 09:09:13;;;;;;;13.10;11.82;;;;;;;24.32;90.80;99234.19;5059052;28;20029;-83
2023/09/18 09:11:39;;;;;;;14.63;12.13;;;;;;;24.24;91.46;99220.06;5051414;28;20460;-83
2023/09/18 09:14:09;;;;;;;12.95;11.65;;;;;;;24.39;91.07;99245.81;5053574;28;20064;-84
2023/09/18 09:16:35;;;;;;;13.68;12.38;;;;;;;24.24;91.59;99228.88;5059081;28;20029;-84
2023/09/18 09:19:00;;;;;;;13.23;12.02;;;;;;;24.22;92.13;99240.69;5071387;28;20025;-83
2023/09/18 09:21:39;;;;;;;14.27;12.88;;;;;;;23.98;92.61;99196.34;5064802;28;20024;-83
2023/09/18 09:24:04;;;;;;;14.25;12.18;;;;;;;24.31;92.93;99231.66;5072060;28;20040;-84
2023/09/18 09:26:29;;;;;;;15.73;12.43;;;;;;;24.28;92.39;99216.88;5071736;28;20082;-83
2023/09/18 09:28:55;;;;;;;13.63;12.30;;;;;;;24.39;92.70;99210.38;5071432;28;20387;-83
2023/09/18 09:31:28;;;;;;;13.23;12.02;;;;;;;24.53;90.91;99236.31;5071454;28;20088;-83
2023/09/18 09:33:53;;;;;;;13.30;11.95;;;;;;;24.33;91.64;99203.91;5070443;28;20384;-83
2023/09/18 09:36:20;;;;;;;12.68;11.48;;;;;;;24.42;90.05;99219.88;5071681;28;20021;-83
2023/09/18 09:38:46;;;;;;;12.23;11.02;;;;;;;24.53;91.12;99227.50;5070240;28;20075;-83
2023/09/18 09:41:16;;;;;;;13.13;11.90;;;;;;;24.34;89.44;99207.38;5071489;28;20052;-83
2023/09/18 09:43:44;;;;;;;14.00;12.48;;;;;;;24.26;89.67;99186.94;5071216;28;20182;-84
2023/09/18 09:46:17;;;;;;;13.57;12.35;;;;;;;24.44;90.88;99213.41;5071640;28;20033;-83
2023/09/18 09:48:59;;;;;;;13.55;12.25;;;;;;;24.21;91.19;99185.81;5071384;28;20032;-83
2023/09/18 09:51:24;;;;;;;14.25;12.75;;;;;;;24.49;91.59;99207.56;5071295;28;20024;-84
2023/09/18 09:53:51;;;;;;;12.32;11.18;;;;;;;24.56;92.28;99200.53;5071330;28;20392;-83
2023/09/18 09:56:21;;;;;;;13.70;12.30;;;;;;;24.38;91.26;99161.66;5072652;28;20020;-83
2023/09/18 09:59:11;;;;;;;15.90;13.88;;;;;;;24.40;91.24;99193.44;5073919;28;20375;-83
2023/09/18 10:01:37;;;;;;;16.98;13.25;;;;;;;24.19;92.09;99167.34;5073570;28;20441;-84
2023/09/18 10:04:07;;;;;;;13.90;12.50;;;;;;;24.34;92.17;99186.09;5075152;28;20115;-84
2023/09/18 10:06:34;;;;;;;13.88;12.57;;;;;;;24.33;92.23;99176.47;5074687;28;20116;-83
2023/09/18 10:09:03;;;;;;;17.65;14.25;;;;;;;24.32;91.04;99164.97;5075540;28;20039;-83
2023/09/18 10:11:32;;;;;;;14.55;13.18;;;;;;;24.47;91.38;99189.06;5074877;28;20028;-83
2023/09/18 10:14:06;;;;;;;16.90;14.18;;;;;;;24.41;91.09;99165.00;5074903;28;20109;-84
2023/09/18 10:16:36;;;;;;;15.27;13.80;;;;;;;24.58;89.88;99187.88;5074510;28;20087;-83
2023/09/18 10:19:39;;;;;;;14.55;13.15;;;;;;;24.55;90.37;99180.22;5074772;28;20036;-84
2023/09/18 10:22:37;;;;;;;15.07;13.60;;;;;;;24.58;92.23;99172.72;5074686;28;20024;-83
2023/09/18 10:25:19;;;;;;;14.32;12.98;;;;;;;24.77;92.89;99184.78;4976590;28;20398;-83
2023/09/18 10:27:49;;;;;;;14.85;13.45;;;;;;;24.82;92.74;99179.78;4992616;28;20106;-84
2023/09/18 10:30:18;;;;;;;15.95;14.38;;;;;;;24.88;90.61;99180.91;4992849;28;20090;-83
2023/09/18 10:32:48;;;;;;;15.43;13.95;;;;;;;24.86;89.50;99177.56;4992904;28;20042;-84
2023/09/18 10:35:14;;;;;;;16.60;14.85;;;;;;;24.94;90.50;99184.69;4993012;28;20104;-83
2023/09/18 10:37:43;;;;;;;15.23;13.82;;;;;;;24.98;91.41;99168.19;4992450;28;20101;-83
2023/09/18 10:40:09;;;;;;;15.60;14.00;;;;;;;24.90;90.25;99141.59;4992594;28;20394;-83
2023/09/18 10:42:37;;;;;;;15.15;13.57;;;;;;;24.96;89.30;99145.41;4992346;28;20061;-83
2023/09/18 10:45:06;;;;;;;16.63;14.48;;;;;;;25.15;88.45;99171.63;4992629;28;20069;-83
2023/09/18 10:47:33;;;;;;;15.52;14.02;;;;;;;25.26;88.38;99183.72;4992361;28;20038;-83
2023/09/18 10:49:59;;;;;;;15.68;14.15;;;;;;;25.02;87.65;99132.19;4992533;28;20033;-84
2023/09/18 10:52:24;;;;;;;15.32;13.88;;;;;;;25.27;87.74;99172.88;4992568;28;20022;-84
2023/09/18 10:54:51;;;;;;;16.13;14.63;;;;;;;25.28;87.25;99155.03;4992462;28;20116;-84
2023/09/18 10:57:16;;;;;;;15.75;14.18;;;;;;;25.31;86.43;99163.50;4992339;28;20036;-84
2023/09/18 10:59:45;;;;;;;14.90;13.60;;;;;;;25.27;86.16;99146.22;4992155;28;20030;-84
2023/09/18 11:02:15;;;;;;;16.02;14.43;;;;;;;25.30;87.70;99153.03;5060268;28;20041;-84
2023/09/18 11:04:42;;;;;;;15.45;13.93;;;;;;;25.33;84.89;99144.69;5073879;28;20036;-84
2023/09/18 11:07:07;;;;;;;15.07;13.68;;;;;;;25.48;86.84;99145.53;5072935;28;20036;-84
2023/09/18 11:09:44;;;;;;;23.58;14.48;;;;;;;25.42;87.96;99118.78;5073475;28;20036;-84
2023/09/18 11:12:11;;;;;;;18.23;15.13;;;;;;;25.55;87.24;99135.00;5073701;28;20360;-83
2023/09/18 11:14:57;;;;;;;14.15;12.73;;;;;;;25.54;84.58;99122.69;5073607;28;20021;-84